Impacts TAF Board
For situational awareness. Not to be used for flight planning purposes.
IDs:

KDFW - Dallas-Ft Worth Intl, TX, US

Issued at 0212 UTC 24 Apr 2019
Updated at 0216 UTC 24 Apr 2019
Potential Impact None Slight Moderate High
Time0153Z 24/03Z 24/04Z 24/05Z 24/06Z 24/07Z 24/08Z 24/09Z 24/10Z 24/11Z 24/12Z 24/13Z 24/14Z 24/15Z>>
Type OBS PRVL
  [TEMP]  
PRVL
  [TEMP]  
PRVL
  [TEMP]  
PRVL PRVL PRVL PRVL PRVL PRVL PRVL PRVL PRVL PRVL
VIS 8 >6
  [2]  
>6
  [2]  
>6
  [2]  
>6 >6 >6 6 6 6 6 6 5 5
CIG 90 40
  [25]  
40
  [25]  
40
  [25]  
40 40 40 15 15 15 15 15 8 8
Cover OVC BKN
  [BKN]  
BKN
  [BKN]  
BKN
  [BKN]  
BKN BKN BKN OVC OVC OVC OVC OVC OVC OVC
FltCat VFR VFR
  [IFR]  
VFR
  [IFR]  
VFR
  [IFR]  
VFR VFR VFR MVFR MVFR MVFR MVFR MVFR IFR IFR
WX -TSRA -SHRA VCTS
  [-TSRA BR]  
-SHRA VCTS
  [-TSRA BR]  
-SHRA VCTS
  [-TSRA BR]  
-SHRA VCTS -SHRA VCTS -SHRA VCTS BR VCSH BR VCSH BR VCSH BR VCSH BR VCSH -SHRA VCTS -SHRA VCTS
WDir 100 140
[300]
140
[300]
140
[300]
140 140 140 160 160 160 160 160 100 100
WSpd 4 8
  [20]  
8
  [20]  
8
  [20]  
8 8 8 7 7 7 7 7 5 5
WGst -- --
  [30]  
--
  [30]  
--
  [30]  
-- -- -- -- -- -- -- -- -- --
Raw TAF
KDFW 240212Z 2402/2506 14008KT P6SM -SHRA VCTS BKN040CB
  TEMPO 2403/2406 30020G30KT 2SM -TSRA BR BKN025CB
  FM240900 16007KT 6SM BR VCSH SCT008 OVC015
  FM241400 10005KT 5SM -SHRA VCTS BKN008 OVC015CB
  FM242100 05008KT 6SM SHRA VCTS OVC015CB
  TEMPO 2421/2424 2SM TSRA BR
  FM250000 03008KT 5SM -DZ BR VCSH OVC009


Raw METAR
KDFW 240153Z 10004KT 8SM -TSRA SCT040CB BKN090 BKN110 OVC170 19/18 A2989 RMK AO2 LTG DSNT ALQDS RAE12B51 TSB51 SLP115 OCNL LTGICCC ALQDS TS ALQDS MOV NE P0000 T01940178
KDFW 240151Z 11004KT 8SM -TSRA SCT040CB BKN090 BKN110 OVC170 19/18 A2989 RMK AO2 LTG DSNT ALQDS RAE12B51 TSB51 OCNL LTGICCC ALQDS TS ALQDS MOV NE P0000
KDFW 240113Z 11004KT 10SM FEW065 BKN090 19/17 A2988 RMK AO2 LTG DSNT ALQDS RAE12 P0000 T01890172
KDFW 240053Z 09005KT 2 1/2SM VCTS -RA FEW046 SCT065 OVC085 19/17 A2989 RMK AO2 SFC VIS 10 LTG DSNT NE-S TSE15B18E46 SLP117 OCNL LTGIC DSNT NE TS MOVD NE CB DSNT NE MOV NE P0015 T01940172
KDFW 240050Z 10005KT 10SM VCTS -RA SCT048 BKN065 OVC085 19/18 A2989 RMK AO2 LTG DSNT NE-S TSE15B18E46 OCNL LTGIC DSNT NE TS MOVD NE CB DSNT NE MOV NE P0015
KDFW 240031Z 05003KT 2 1/2SM R17C/3000VP6000FT -TSRA BR BKN048 OVC060CB 20/19 A2991 RMK AO2 SFC VIS 4 LTG DSNT NE AND E TSE15B18 FRQ LTGIC NE-OHD-SW TS NE-OHD-SW MOV NE P0014 T02000189
KDFW 240022Z 00000KT 3/4SM R17C/P6000FT -TSRA BR FEW030 BKN048 OVC060CB 20/19 A2991 RMK AO2 SFC VIS 3 LTG DSNT NE AND E TSE15B18 OCNL LTGIC OHD-SW TS OHD-SW MOV NE P0013 T02000189
KDFW 240015Z 00000KT 5SM VCTS -RA BR FEW036 BKN048 OVC075 20/19 A2991 RMK AO2 LTG DSNT NE AND E TSE15 OCNL LTGIC DSNT NE TS MOVD NE CB DSNT NE MOV NE P0012 T02000189
KDFW 232353Z 16005KT 1SM R17C/5000VP6000FT +TSRA BR FEW004 BKN032 OVC090CB 20/19 A2992 RMK AO2 LTG DSNT NE AND SW RAB23 TSB2255E10B11 SLP125 FRQ LTGICCC ALQDS TS ALQDS MOV NE P0041 60041 T02000189 10239 20200 56009
KDFW 232344Z 00000KT 1/4SM R17C/3000VP6000FT +TSRA FG FEW010 BKN035 OVC060CB 20/19 A2992 RMK AO2 TWR VIS 1 LTG DSNT NE AND E AND SW RAB23 TSB2255E10B11 FRQ LTGICCC ALQDS TS ALQDS MOV NE P0031 T02000194
KDFW 232340Z 20011KT 3/4SM R17C/P6000FT +TSRA BR SCT021 BKN046 OVC055CB 21/19 A2993 RMK AO2 LTG DSNT NE AND E RAB23 TSB2255E10B11 OCNL LTGICCC OHD SE-SW TS OHD SE-SW MOV NE P0001 T02110189

METAR Board
Radar Display
Forecast Discussion
For situational awareness. Not to be used for flight planning purposes.